Time;durP1;ratioP1;P1;durP2;ratioP2;P2;SDS_P1;SDS_P2;PMS_P1;PMS_P2;Temp;Humidity;BMP_temperature;BMP_pressure;BME280_temperature;BME280_humidity;BME280_pressure;Samples;Min_cycle;Max_cycle;Signal;HPM_P1;HPM_P2
2023/05/31 00:03:02;;;;;;;2.40;0.50;;;;;;;;;;10365376;28;21169;-77
2023/05/31 00:08:03;;;;;;;0.95;0.75;;;;;;;;;;10353629;28;20223;-77
2023/05/31 00:13:04;;;;;;;0.60;0.60;;;;;;;;;;10380607;28;20851;-77
2023/05/31 00:18:05;;;;;;;0.95;0.80;;;;;;;;;;10370524;28;20297;-78
2023/05/31 00:23:06;;;;;;;4.72;0.88;;;;;;;;;;10377842;28;20226;-78
2023/05/31 00:28:07;;;;;;;1.27;0.82;;;;;;;;;;10352517;28;20220;-75
2023/05/31 00:33:09;;;;;;;3.45;0.70;;;;;;;;;;10342329;28;20222;-76
2023/05/31 00:38:11;;;;;;;1.48;0.82;;;;;;;;;;10363442;28;20235;-76
2023/05/31 00:43:12;;;;;;;0.60;0.60;;;;;;;;;;10352190;28;20410;-76
2023/05/31 00:48:13;;;;;;;1.85;0.60;;;;;;;;;;10357763;28;20733;-77
2023/05/31 00:53:14;;;;;;;2.08;0.60;;;;;;;;;;10348675;28;20215;-77
2023/05/31 00:58:16;;;;;;;2.78;0.82;;;;;;;;;;10333946;28;20314;-77
2023/05/31 01:03:18;;;;;;;2.25;0.50;;;;;;;;;;10357748;28;20282;-76
2023/05/31 01:08:20;;;;;;;1.40;0.70;;;;;;;;;;10362393;28;20224;-76
2023/05/31 01:13:23;;;;;;;0.77;0.47;;;;;;;;;;10364632;28;20226;-78
2023/05/31 01:18:32;;;;;;;0.40;0.40;;;;;;;;;;10360724;28;20235;-78
2023/05/31 01:23:42;;;;;;;1.30;0.50;;;;;;;;;;10361507;28;20226;-76
2023/05/31 01:28:45;;;;;;;1.38;0.55;;;;;;;;;;10385968;28;20246;-74
2023/05/31 01:33:46;;;;;;;1.35;0.65;;;;;;;;;;10373426;28;20338;-77
2023/05/31 01:38:47;;;;;;;0.40;0.40;;;;;;;;;;10372156;28;20223;-77
2023/05/31 01:43:49;;;;;;;0.57;0.57;;;;;;;;;;10385368;28;20292;-77
2023/05/31 01:48:50;;;;;;;1.42;0.75;;;;;;;;;;10372302;28;20649;-76
2023/05/31 01:53:51;;;;;;;0.70;0.70;;;;;;;;;;10365635;28;20228;-77
2023/05/31 01:58:53;;;;;;;1.65;0.50;;;;;;;;;;10389073;28;20250;-77
2023/05/31 02:03:54;;;;;;;0.55;0.50;;;;;;;;;;10384836;28;20238;-78
2023/05/31 02:08:55;;;;;;;2.17;0.50;;;;;;;;;;10348615;28;20223;-75
2023/05/31 02:14:00;;;;;;;0.80;0.80;;;;;;;;;;10354572;28;20792;-75
2023/05/31 02:19:02;;;;;;;1.77;0.82;;;;;;;;;;10370425;28;20240;-77
2023/05/31 02:24:04;;;;;;;1.48;0.63;;;;;;;;;;10343824;28;20362;-77
2023/05/31 02:29:05;;;;;;;0.60;0.60;;;;;;;;;;10360054;28;20211;-76
2023/05/31 02:34:06;;;;;;;0.57;0.50;;;;;;;;;;10356237;28;20222;-76
2023/05/31 02:39:07;;;;;;;0.75;0.50;;;;;;;;;;10371160;28;20306;-76
2023/05/31 02:44:08;;;;;;;1.13;0.60;;;;;;;;;;10365883;28;20716;-76
2023/05/31 02:49:10;;;;;;;0.70;0.70;;;;;;;;;;10353315;28;20224;-74
2023/05/31 02:54:11;;;;;;;0.77;0.70;;;;;;;;;;10363560;28;20223;-75
2023/05/31 02:59:12;;;;;;;2.15;0.55;;;;;;;;;;10377735;28;20394;-78
2023/05/31 03:04:16;;;;;;;0.50;0.50;;;;;;;;;;10353022;28;20221;-76
2023/05/31 03:09:18;;;;;;;4.22;0.70;;;;;;;;;;10364470;28;20223;-76
2023/05/31 03:14:19;;;;;;;1.27;0.75;;;;;;;;;;10327864;28;20211;-78
2023/05/31 03:19:27;;;;;;;3.78;0.60;;;;;;;;;;10356867;28;20227;-78
2023/05/31 03:24:28;;;;;;;1.85;0.50;;;;;;;;;;10347863;28;20305;-77
2023/05/31 03:29:29;;;;;;;0.82;0.82;;;;;;;;;;10355635;28;20218;-76
2023/05/31 03:34:33;;;;;;;0.70;0.70;;;;;;;;;;10343123;28;20229;-78
2023/05/31 03:39:34;;;;;;;0.43;0.43;;;;;;;;;;10351692;28;20786;-77
2023/05/31 03:44:36;;;;;;;0.50;0.50;;;;;;;;;;10346193;28;20230;-76
2023/05/31 03:49:37;;;;;;;2.25;0.70;;;;;;;;;;10375103;28;20219;-76
2023/05/31 03:54:39;;;;;;;0.50;0.50;;;;;;;;;;10346575;28;20312;-77
2023/05/31 03:59:40;;;;;;;0.50;0.50;;;;;;;;;;10361832;28;20255;-76
2023/05/31 04:04:40;;;;;;;2.63;0.70;;;;;;;;;;10347074;28;20219;-75
2023/05/31 04:09:41;;;;;;;0.50;0.50;;;;;;;;;;10352343;28;20218;-77
2023/05/31 04:14:43;;;;;;;0.98;0.65;;;;;;;;;;10379301;28;20242;-79
2023/05/31 04:19:45;;;;;;;1.38;0.52;;;;;;;;;;10357244;28;20234;-77
2023/05/31 04:24:46;;;;;;;1.45;0.60;;;;;;;;;;10359492;28;20353;-77
2023/05/31 04:29:53;;;;;;;0.75;0.60;;;;;;;;;;10362891;28;20224;-77
2023/05/31 04:34:57;;;;;;;0.57;0.57;;;;;;;;;;10345984;28;20277;-78
2023/05/31 04:40:00;;;;;;;1.88;0.80;;;;;;;;;;10345118;28;21466;-79
2023/05/31 04:45:04;;;;;;;1.63;0.60;;;;;;;;;;10339437;28;20712;-76
2023/05/31 04:50:11;;;;;;;3.35;0.60;;;;;;;;;;10361631;28;20631;-75
2023/05/31 04:55:12;;;;;;;0.40;0.40;;;;;;;;;;10347552;28;20207;-78
2023/05/31 05:00:16;;;;;;;0.73;0.60;;;;;;;;;;10317434;28;22144;-76
2023/05/31 05:05:50;;;;;;;0.73;0.73;;;;;;;;;;10322470;28;20224;-75
2023/05/31 05:10:52;;;;;;;0.70;0.70;;;;;;;;;;10345342;28;20743;-77
2023/05/31 05:15:53;;;;;;;0.95;0.80;;;;;;;;;;10341643;28;20226;-78
2023/05/31 05:20:56;;;;;;;2.05;0.80;;;;;;;;;;10347017;28;20223;-79
2023/05/31 05:26:01;;;;;;;3.53;0.75;;;;;;;;;;10323951;28;20224;-77
2023/05/31 05:31:03;;;;;;;0.75;0.60;;;;;;;;;;10345895;28;20268;-76
2023/05/31 05:36:07;;;;;;;2.20;0.82;;;;;;;;;;10332575;28;20234;-77
2023/05/31 05:41:13;;;;;;;0.88;0.68;;;;;;;;;;10342669;28;20575;-76
2023/05/31 05:46:15;;;;;;;1.08;0.77;;;;;;;;;;10315373;28;20212;-74
2023/05/31 05:51:17;;;;;;;1.20;0.55;;;;;;;;;;10357102;28;20217;-77
2023/05/31 05:56:18;;;;;;;0.82;0.82;;;;;;;;;;10363641;28;20281;-76
2023/05/31 06:01:32;;;;;;;1.45;0.50;;;;;;;;;;10363505;28;20222;-77
2023/05/31 06:06:35;;;;;;;2.35;0.50;;;;;;;;;;10358851;28;20219;-77
2023/05/31 06:11:36;;;;;;;0.52;0.52;;;;;;;;;;10349632;28;21011;-76
2023/05/31 06:16:37;;;;;;;1.95;0.70;;;;;;;;;;10374021;28;20869;-75
2023/05/31 06:21:39;;;;;;;1.77;0.98;;;;;;;;;;10348852;28;20316;-78
2023/05/31 06:26:40;;;;;;;0.80;0.80;;;;;;;;;;10375340;28;20316;-77
2023/05/31 06:31:42;;;;;;;3.95;1.00;;;;;;;;;;10358532;28;20590;-77
2023/05/31 06:36:43;;;;;;;8.27;1.13;;;;;;;;;;10354223;28;20223;-75
2023/05/31 06:41:44;;;;;;;0.80;0.80;;;;;;;;;;10356019;28;20239;-77
2023/05/31 06:47:13;;;;;;;0.90;0.55;;;;;;;;;;10348434;28;20216;-76
2023/05/31 06:52:46;;;;;;;0.77;0.77;;;;;;;;;;10375839;28;20261;-78
2023/05/31 06:58:11;;;;;;;3.50;0.65;;;;;;;;;;10331169;28;21331;-77
2023/05/31 07:03:14;;;;;;;2.22;0.50;;;;;;;;;;10358103;28;20330;-77
2023/05/31 07:08:16;;;;;;;1.75;0.70;;;;;;;;;;10336975;28;20309;-77
2023/05/31 07:13:36;;;;;;;1.90;0.63;;;;;;;;;;10365171;28;20222;-77
2023/05/31 07:18:37;;;;;;;3.72;0.70;;;;;;;;;;10357853;28;20731;-75
2023/05/31 07:23:38;;;;;;;0.73;0.73;;;;;;;;;;10355915;28;20212;-77
2023/05/31 07:28:39;;;;;;;1.88;0.80;;;;;;;;;;10368621;28;21096;-77
2023/05/31 07:33:40;;;;;;;5.38;0.60;;;;;;;;;;10329002;28;20219;-77
2023/05/31 07:38:41;;;;;;;3.63;1.05;;;;;;;;;;10370662;28;20238;-78
2023/05/31 07:43:44;;;;;;;2.30;0.73;;;;;;;;;;10341257;28;20303;-78
2023/05/31 07:48:45;;;;;;;1.85;0.50;;;;;;;;;;10375324;28;20254;-79
2023/05/31 07:53:46;;;;;;;0.60;0.60;;;;;;;;;;10349318;28;20223;-79
2023/05/31 07:58:47;;;;;;;0.63;0.60;;;;;;;;;;10358005;28;20227;-80
2023/05/31 08:03:50;;;;;;;0.50;0.50;;;;;;;;;;10364778;28;20246;-79
2023/05/31 08:08:51;;;;;;;1.27;0.50;;;;;;;;;;10360459;28;20299;-78
2023/05/31 08:13:52;;;;;;;0.50;0.50;;;;;;;;;;10349083;28;20734;-77
2023/05/31 08:18:53;;;;;;;0.80;0.80;;;;;;;;;;10357757;28;20234;-78
2023/05/31 08:23:55;;;;;;;3.40;0.60;;;;;;;;;;10364103;28;20223;-77
2023/05/31 08:28:56;;;;;;;0.73;0.50;;;;;;;;;;10357028;28;20230;-79
2023/05/31 08:33:58;;;;;;;0.40;0.40;;;;;;;;;;10358160;28;20323;-79
2023/05/31 08:38:59;;;;;;;1.10;0.47;;;;;;;;;;10373883;28;20219;-79
2023/05/31 08:44:01;;;;;;;2.92;0.40;;;;;;;;;;10369611;28;20226;-78
2023/05/31 08:49:11;;;;;;;0.45;0.45;;;;;;;;;;10347338;28;20230;-78
2023/05/31 08:54:13;;;;;;;3.92;0.50;;;;;;;;;;10360687;28;20871;-80
2023/05/31 08:59:17;;;;;;;0.70;0.38;;;;;;;;;;10361585;28;20223;-79
2023/05/31 09:04:18;;;;;;;1.15;0.60;;;;;;;;;;10355985;28;20215;-77
2023/05/31 09:09:19;;;;;;;1.25;0.50;;;;;;;;;;10366073;28;20263;-78
2023/05/31 09:14:21;;;;;;;0.82;0.50;;;;;;;;;;10371397;28;20284;-76
2023/05/31 09:19:22;;;;;;;0.50;0.40;;;;;;;;;;10328964;28;20227;-78
2023/05/31 09:24:23;;;;;;;1.83;0.50;;;;;;;;;;10367496;28;20720;-78
2023/05/31 09:29:24;;;;;;;0.95;0.60;;;;;;;;;;10352824;28;20281;-78
2023/05/31 09:34:26;;;;;;;1.27;0.40;;;;;;;;;;10352693;28;20722;-79
2023/05/31 09:39:28;;;;;;;2.42;0.60;;;;;;;;;;10363239;28;20764;-79
2023/05/31 09:44:30;;;;;;;0.30;0.30;;;;;;;;;;10360668;28;20298;-79
2023/05/31 09:49:31;;;;;;;0.70;0.47;;;;;;;;;;10327647;28;20219;-80
2023/05/31 09:54:38;;;;;;;0.50;0.50;;;;;;;;;;10362297;28;20247;-78
2023/05/31 09:59:40;;;;;;;1.52;0.43;;;;;;;;;;10373133;28;20239;-79
2023/05/31 10:04:41;;;;;;;0.85;0.45;;;;;;;;;;10350069;28;20273;-79
2023/05/31 10:09:42;;;;;;;0.50;0.50;;;;;;;;;;10379551;28;20254;-78
2023/05/31 10:14:46;;;;;;;0.90;0.40;;;;;;;;;;10360675;28;20212;-78
2023/05/31 10:19:51;;;;;;;0.50;0.50;;;;;;;;;;10372820;28;20252;-78
2023/05/31 10:24:55;;;;;;;0.38;0.38;;;;;;;;;;10375546;28;20247;-78
2023/05/31 10:30:03;;;;;;;1.90;0.40;;;;;;;;;;10370916;28;20234;-78
2023/05/31 10:35:05;;;;;;;0.93;0.45;;;;;;;;;;10371785;28;20692;-79
2023/05/31 10:40:20;;;;;;;0.35;0.35;;;;;;;;;;10355398;28;20223;-78
2023/05/31 10:45:26;;;;;;;2.30;0.40;;;;;;;;;;10363735;28;20629;-79
2023/05/31 10:50:27;;;;;;;0.52;0.50;;;;;;;;;;10376153;28;20714;-78
2023/05/31 10:55:28;;;;;;;0.60;0.32;;;;;;;;;;10355327;28;20868;-78
2023/05/31 11:00:29;;;;;;;0.30;0.30;;;;;;;;;;10375693;28;20221;-79
2023/05/31 11:05:30;;;;;;;0.30;0.30;;;;;;;;;;10345357;28;20393;-78
2023/05/31 11:10:32;;;;;;;1.50;0.40;;;;;;;;;;10370403;28;20229;-78
2023/05/31 11:15:40;;;;;;;0.85;0.40;;;;;;;;;;10358931;28;20223;-79
2023/05/31 11:20:41;;;;;;;0.40;0.40;;;;;;;;;;10351051;28;20220;-77
2023/05/31 11:25:42;;;;;;;0.50;0.40;;;;;;;;;;10353156;28;20226;-78
2023/05/31 11:30:46;;;;;;;2.25;0.50;;;;;;;;;;10367180;28;20214;-78
2023/05/31 11:35:47;;;;;;;1.95;0.50;;;;;;;;;;10352824;28;20238;-78
2023/05/31 11:40:48;;;;;;;1.48;0.50;;;;;;;;;;10351395;28;20865;-77
2023/05/31 11:45:51;;;;;;;0.77;0.30;;;;;;;;;;10345548;28;20217;-77
2023/05/31 11:50:55;;;;;;;0.40;0.40;;;;;;;;;;10369246;28;20254;-80
2023/05/31 11:55:58;;;;;;;0.38;0.38;;;;;;;;;;10346039;28;20228;-78
2023/05/31 12:00:59;;;;;;;4.35;0.30;;;;;;;;;;10350746;28;20231;-77
2023/05/31 12:06:01;;;;;;;0.70;0.40;;;;;;;;;;10352208;28;21164;-76
2023/05/31 12:11:03;;;;;;;0.50;0.50;;;;;;;;;;10354273;28;20556;-77
2023/05/31 12:16:05;;;;;;;0.57;0.57;;;;;;;;;;10355763;28;20215;-78
2023/05/31 12:21:11;;;;;;;0.40;0.40;;;;;;;;;;10371433;28;20310;-77
2023/05/31 12:26:12;;;;;;;0.60;0.45;;;;;;;;;;10360416;28;20230;-79
2023/05/31 12:31:23;;;;;;;0.47;0.47;;;;;;;;;;10365183;28;20223;-79
2023/05/31 12:36:25;;;;;;;3.05;0.30;;;;;;;;;;10345721;28;20251;-77
2023/05/31 12:41:26;;;;;;;1.17;0.45;;;;;;;;;;10346671;28;21019;-77
2023/05/31 12:46:27;;;;;;;0.57;0.28;;;;;;;;;;10339315;28;21465;-78
2023/05/31 12:51:28;;;;;;;0.65;0.40;;;;;;;;;;10368913;28;20216;-79
2023/05/31 12:56:29;;;;;;;0.38;0.30;;;;;;;;;;10342065;28;20811;-78
2023/05/31 13:01:31;;;;;;;2.20;0.50;;;;;;;;;;10358657;28;20242;-78
2023/05/31 13:06:33;;;;;;;1.15;0.40;;;;;;;;;;10365381;28;20211;-78
2023/05/31 13:11:35;;;;;;;0.93;0.40;;;;;;;;;;10370328;28;20323;-78
2023/05/31 13:16:37;;;;;;;1.05;0.50;;;;;;;;;;10341851;28;20318;-78
2023/05/31 13:21:39;;;;;;;0.75;0.40;;;;;;;;;;10363465;28;20622;-79
2023/05/31 13:26:40;;;;;;;2.10;0.40;;;;;;;;;;10341026;28;20720;-78
2023/05/31 13:31:41;;;;;;;1.55;0.45;;;;;;;;;;10372858;28;20222;-78
2023/05/31 13:36:42;;;;;;;0.40;0.40;;;;;;;;;;10361651;28;20220;-78
2023/05/31 13:41:43;;;;;;;0.88;0.28;;;;;;;;;;10351087;28;20797;-78
2023/05/31 13:46:45;;;;;;;1.40;0.40;;;;;;;;;;10371854;28;20398;-79
2023/05/31 13:51:46;;;;;;;1.45;0.38;;;;;;;;;;10347449;28;20302;-78
2023/05/31 13:56:47;;;;;;;0.47;0.47;;;;;;;;;;10369697;28;20256;-80
2023/05/31 14:01:48;;;;;;;0.50;0.50;;;;;;;;;;10366311;28;20227;-78
2023/05/31 14:06:49;;;;;;;0.88;0.50;;;;;;;;;;10371716;28;20755;-79
2023/05/31 14:11:50;;;;;;;0.52;0.52;;;;;;;;;;10368026;28;20254;-79
2023/05/31 14:16:52;;;;;;;0.35;0.30;;;;;;;;;;10350700;28;20269;-77
2023/05/31 14:21:53;;;;;;;0.40;0.40;;;;;;;;;;10366261;28;20299;-79
2023/05/31 14:26:54;;;;;;;2.15;0.40;;;;;;;;;;10372442;28;20685;-79
2023/05/31 14:31:55;;;;;;;2.90;0.40;;;;;;;;;;10367269;28;20220;-79
2023/05/31 14:36:56;;;;;;;1.00;0.40;;;;;;;;;;10370679;28;20727;-80
2023/05/31 14:41:58;;;;;;;0.30;0.30;;;;;;;;;;10363527;28;20258;-79
2023/05/31 14:47:02;;;;;;;1.48;0.30;;;;;;;;;;10376509;28;20250;-79
2023/05/31 14:52:07;;;;;;;7.80;0.50;;;;;;;;;;10382878;28;20226;-80
2023/05/31 14:57:08;;;;;;;0.38;0.38;;;;;;;;;;10394223;28;20231;-79
2023/05/31 15:02:09;;;;;;;1.08;0.60;;;;;;;;;;10395250;28;20233;-80
2023/05/31 15:07:11;;;;;;;0.40;0.40;;;;;;;;;;10387755;28;20215;-80
2023/05/31 15:12:12;;;;;;;0.40;0.40;;;;;;;;;;10370036;28;20358;-80
2023/05/31 15:17:13;;;;;;;0.30;0.30;;;;;;;;;;10373559;28;20235;-78
2023/05/31 15:22:14;;;;;;;0.60;0.60;;;;;;;;;;10394025;28;20216;-81
2023/05/31 15:27:15;;;;;;;0.40;0.40;;;;;;;;;;10358863;28;20733;-81
2023/05/31 15:32:16;;;;;;;0.68;0.40;;;;;;;;;;10382982;28;20245;-80
2023/05/31 15:37:17;;;;;;;0.75;0.40;;;;;;;;;;10366505;28;21229;-81
2023/05/31 15:42:18;;;;;;;0.40;0.40;;;;;;;;;;10354276;28;20621;-81
2023/05/31 15:47:20;;;;;;;0.40;0.40;;;;;;;;;;10371597;28;20231;-81
2023/05/31 15:52:21;;;;;;;0.50;0.40;;;;;;;;;;10374399;28;20219;-81
2023/05/31 15:57:28;;;;;;;1.52;0.40;;;;;;;;;;10459988;27;20589;-77
2023/05/31 16:02:29;;;;;;;0.30;0.30;;;;;;;;;;10382288;28;20266;-79
2023/05/31 16:07:30;;;;;;;0.98;0.38;;;;;;;;;;10384501;28;20827;-79
2023/05/31 16:12:31;;;;;;;0.40;0.40;;;;;;;;;;10378038;28;20223;-80
2023/05/31 16:17:32;;;;;;;0.45;0.28;;;;;;;;;;10389875;28;20206;-80
2023/05/31 16:22:33;;;;;;;0.40;0.40;;;;;;;;;;10392658;28;20242;-79
2023/05/31 16:27:34;;;;;;;0.40;0.35;;;;;;;;;;10381576;28;20708;-83
2023/05/31 16:32:35;;;;;;;1.02;0.40;;;;;;;;;;10374053;28;20234;-79
2023/05/31 16:37:37;;;;;;;0.50;0.50;;;;;;;;;;10365999;28;20768;-81
2023/05/31 16:42:38;;;;;;;1.33;0.30;;;;;;;;;;10364740;28;20214;-80
2023/05/31 16:47:39;;;;;;;0.30;0.30;;;;;;;;;;10387998;28;20216;-80
2023/05/31 16:52:40;;;;;;;1.45;0.40;;;;;;;;;;10374173;28;20233;-81
2023/05/31 16:57:41;;;;;;;1.13;0.50;;;;;;;;;;10377790;28;20266;-82
2023/05/31 17:02:42;;;;;;;0.30;0.30;;;;;;;;;;10403663;28;21098;-81
2023/05/31 17:07:43;;;;;;;0.25;0.25;;;;;;;;;;10382864;28;20754;-81
2023/05/31 17:12:46;;;;;;;0.38;0.38;;;;;;;;;;10369729;28;20212;-80
2023/05/31 17:17:47;;;;;;;0.40;0.40;;;;;;;;;;10359055;28;20218;-80
2023/05/31 17:22:48;;;;;;;1.23;0.40;;;;;;;;;;10365186;28;20222;-80
2023/05/31 17:27:51;;;;;;;0.40;0.40;;;;;;;;;;10344971;28;20215;-80
2023/05/31 17:32:53;;;;;;;0.40;0.40;;;;;;;;;;10353884;28;20311;-80
2023/05/31 17:37:54;;;;;;;1.65;0.30;;;;;;;;;;10317234;28;20220;-79
2023/05/31 17:42:55;;;;;;;0.30;0.30;;;;;;;;;;10335128;28;20219;-79
2023/05/31 17:47:56;;;;;;;0.32;0.32;;;;;;;;;;10307817;28;20652;-79
2023/05/31 17:52:57;;;;;;;2.45;0.43;;;;;;;;;;10363332;28;20228;-77
2023/05/31 17:57:58;;;;;;;0.30;0.30;;;;;;;;;;10334667;28;20252;-79
2023/05/31 18:02:59;;;;;;;2.35;0.40;;;;;;;;;;10362747;28;21375;-77
2023/05/31 18:08:00;;;;;;;0.40;0.40;;;;;;;;;;10338745;28;20345;-77
2023/05/31 18:13:02;;;;;;;0.30;0.30;;;;;;;;;;10319591;28;20338;-79
2023/05/31 18:18:03;;;;;;;0.32;0.30;;;;;;;;;;10338948;28;20212;-78
2023/05/31 18:23:04;;;;;;;0.30;0.30;;;;;;;;;;10331729;28;20243;-76
2023/05/31 18:28:05;;;;;;;0.73;0.30;;;;;;;;;;10365159;28;20216;-78
2023/05/31 18:33:06;;;;;;;2.30;0.40;;;;;;;;;;10332674;28;20227;-77
2023/05/31 18:38:07;;;;;;;0.47;0.47;;;;;;;;;;10342309;28;20354;-77
2023/05/31 18:43:09;;;;;;;1.40;0.52;;;;;;;;;;10358686;28;20238;-78
2023/05/31 18:48:10;;;;;;;0.80;0.40;;;;;;;;;;10318971;28;20315;-78
2023/05/31 18:53:11;;;;;;;2.90;0.52;;;;;;;;;;10331989;28;20837;-78
2023/05/31 18:58:12;;;;;;;0.30;0.30;;;;;;;;;;10321578;28;20220;-78
2023/05/31 19:03:13;;;;;;;0.30;0.30;;;;;;;;;;10326057;28;20306;-77
2023/05/31 19:08:14;;;;;;;3.50;0.52;;;;;;;;;;10361464;28;20230;-77
2023/05/31 19:13:16;;;;;;;1.55;0.40;;;;;;;;;;10335575;28;20243;-76
2023/05/31 19:18:18;;;;;;;0.70;0.43;;;;;;;;;;10317322;28;20279;-74
2023/05/31 19:23:19;;;;;;;1.98;0.40;;;;;;;;;;10326286;28;20758;-73
2023/05/31 19:28:20;;;;;;;0.70;0.70;;;;;;;;;;10312404;28;20235;-74
2023/05/31 19:33:21;;;;;;;2.05;0.50;;;;;;;;;;10326951;28;20220;-74
2023/05/31 19:38:25;;;;;;;1.05;0.60;;;;;;;;;;10315216;28;20216;-75
2023/05/31 19:43:26;;;;;;;2.85;0.50;;;;;;;;;;10328855;28;20219;-74
2023/05/31 19:48:27;;;;;;;0.50;0.50;;;;;;;;;;10320670;28;20879;-75
2023/05/31 19:53:28;;;;;;;2.58;0.32;;;;;;;;;;10308102;28;20227;-77
2023/05/31 19:58:29;;;;;;;1.27;0.50;;;;;;;;;;10333793;28;20776;-77
2023/05/31 20:03:30;;;;;;;1.40;0.60;;;;;;;;;;10324509;28;20215;-76
2023/05/31 20:14:35;;;;;;;1.17;0.65;;;;;;;;;;10338331;28;20534;-77
2023/05/31 20:19:36;;;;;;;0.82;0.82;;;;;;;;;;10358053;28;20931;-76
2023/05/31 20:24:37;;;;;;;0.50;0.50;;;;;;;;;;10303212;28;20306;-76
2023/05/31 20:29:40;;;;;;;0.50;0.50;;;;;;;;;;10305660;28;20609;-74
2023/05/31 20:34:41;;;;;;;0.50;0.50;;;;;;;;;;10306194;28;20782;-77
2023/05/31 20:39:42;;;;;;;1.85;0.50;;;;;;;;;;10330286;28;20220;-77
2023/05/31 20:44:44;;;;;;;1.67;0.40;;;;;;;;;;10315359;28;20731;-76
2023/05/31 20:49:45;;;;;;;4.28;0.55;;;;;;;;;;10275120;28;20724;-76
2023/05/31 20:54:46;;;;;;;0.73;0.57;;;;;;;;;;10275203;28;20276;-76
2023/05/31 20:59:47;;;;;;;1.70;0.60;;;;;;;;;;10290052;28;20938;-75
2023/05/31 21:04:48;;;;;;;0.60;0.52;;;;;;;;;;10311604;28;20297;-76
2023/05/31 21:09:49;;;;;;;0.60;0.60;;;;;;;;;;10301750;28;20221;-80
2023/05/31 21:14:52;;;;;;;1.58;0.68;;;;;;;;;;10290664;28;20283;-79
2023/05/31 21:19:53;;;;;;;0.52;0.52;;;;;;;;;;10302262;28;20244;-78
2023/05/31 21:24:54;;;;;;;2.05;0.43;;;;;;;;;;10317667;28;20220;-79
2023/05/31 21:29:55;;;;;;;1.55;0.50;;;;;;;;;;10298100;28;20224;-78
2023/05/31 21:34:56;;;;;;;0.63;0.63;;;;;;;;;;10271946;28;20709;-77
2023/05/31 21:39:57;;;;;;;5.43;0.60;;;;;;;;;;10265529;28;20212;-79
2023/05/31 21:44:58;;;;;;;2.70;0.50;;;;;;;;;;10276487;28;20276;-79
2023/05/31 21:49:59;;;;;;;1.08;0.60;;;;;;;;;;10306039;28;20740;-78
2023/05/31 21:55:00;;;;;;;0.55;0.55;;;;;;;;;;10283257;28;20231;-78
2023/05/31 22:00:03;;;;;;;2.28;0.60;;;;;;;;;;10272006;28;20305;-78
2023/05/31 22:05:06;;;;;;;1.77;0.40;;;;;;;;;;10289409;28;20200;-79
2023/05/31 22:10:07;;;;;;;0.40;0.40;;;;;;;;;;10280963;28;20220;-78
2023/05/31 22:15:09;;;;;;;1.63;0.50;;;;;;;;;;10232365;28;20720;-78
2023/05/31 22:20:11;;;;;;;0.50;0.50;;;;;;;;;;10271754;28;20223;-78
2023/05/31 22:25:12;;;;;;;0.50;0.50;;;;;;;;;;10303882;28;21003;-75
2023/05/31 22:30:13;;;;;;;0.40;0.40;;;;;;;;;;10270287;28;20216;-76
2023/05/31 22:35:14;;;;;;;1.08;0.40;;;;;;;;;;10303048;28;20217;-76
2023/05/31 22:40:15;;;;;;;1.05;0.40;;;;;;;;;;10296450;28;20220;-76
2023/05/31 22:45:16;;;;;;;0.40;0.40;;;;;;;;;;10285011;28;20185;-76
2023/05/31 22:50:17;;;;;;;1.88;0.30;;;;;;;;;;10280456;28;20204;-76
2023/05/31 22:55:19;;;;;;;0.57;0.50;;;;;;;;;;10266400;28;20541;-77
2023/05/31 23:00:20;;;;;;;0.88;0.40;;;;;;;;;;10296497;28;20203;-77
2023/05/31 23:05:22;;;;;;;1.00;0.38;;;;;;;;;;10290065;28;20204;-77
2023/05/31 23:10:23;;;;;;;0.68;0.68;;;;;;;;;;10276674;28;20304;-76
2023/05/31 23:15:24;;;;;;;1.75;0.30;;;;;;;;;;10252791;28;20219;-78
2023/05/31 23:20:25;;;;;;;0.50;0.50;;;;;;;;;;10298912;28;20219;-76
2023/05/31 23:25:26;;;;;;;0.40;0.40;;;;;;;;;;10306086;28;20366;-76
2023/05/31 23:30:28;;;;;;;0.73;0.40;;;;;;;;;;10355004;28;21098;-75
2023/05/31 23:35:29;;;;;;;0.68;0.50;;;;;;;;;;10343181;28;20645;-75
2023/05/31 23:40:30;;;;;;;1.40;0.75;;;;;;;;;;10338316;28;20220;-76
2023/05/31 23:45:31;;;;;;;1.60;0.98;;;;;;;;;;10337800;28;20789;-77
2023/05/31 23:50:32;;;;;;;2.47;1.00;;;;;;;;;;10330426;28;20340;-76
2023/05/31 23:55:33;;;;;;;2.45;1.10;;;;;;;;;;10316949;28;20234;-76
